createdAt,value
2022-10-29T00:00:59.462Z,6.34
2022-10-29T00:03:27.164Z,6.35
2022-10-29T00:06:00.481Z,6.43
2022-10-29T00:08:30.174Z,6.36
2022-10-29T00:11:09.100Z,6.44
2022-10-29T00:13:37.351Z,6.31
2022-10-29T00:16:10.514Z,6.36
2022-10-29T00:18:37.976Z,6.26
2022-10-29T00:21:10.504Z,6.31
2022-10-29T00:23:37.873Z,6.22
2022-10-29T00:26:05.744Z,6.18
2022-10-29T00:28:33.770Z,6.18
2022-10-29T00:31:06.441Z,6.26
2022-10-29T00:33:33.905Z,6.17
2022-10-29T00:36:04.242Z,6.20
2022-10-29T00:38:33.533Z,6.21
2022-10-29T00:41:02.380Z,6.20
2022-10-29T00:43:29.813Z,6.11
2022-10-29T00:46:02.054Z,6.13
2022-10-29T00:48:32.316Z,6.11
2022-10-29T00:51:03.757Z,6.11
2022-10-29T00:53:36.067Z,6.08
2022-10-29T00:56:03.991Z,6.02
2022-10-29T00:58:31.557Z,5.98
2022-10-29T01:00:59.629Z,5.94
2022-10-29T01:03:27.166Z,5.93
2022-10-29T01:05:54.780Z,5.91
2022-10-29T01:08:22.983Z,5.86
2022-10-29T01:11:30.662Z,6.04
2022-10-29T01:14:30.790Z,5.98
2022-10-29T01:17:22.862Z,5.92
2022-10-29T01:20:08.210Z,5.71
2022-10-29T01:22:45.129Z,5.67
2022-10-29T01:25:36.367Z,5.72
2022-10-29T01:31:36.004Z,5.70
2022-10-29T01:34:06.935Z,5.45
2022-10-29T01:36:53.836Z,5.55
2022-10-29T01:39:45.515Z,5.46
2022-10-29T01:42:29.318Z,5.47
2022-10-29T01:45:04.059Z,5.31
2022-10-29T01:47:42.662Z,5.29
2022-10-29T01:50:16.572Z,5.27
2022-10-29T01:52:45.160Z,5.15
2022-10-29T01:55:23.547Z,5.16
2022-10-29T01:57:50.909Z,5.03
2022-10-29T02:00:20.203Z,5.08
2022-10-29T02:03:00.071Z,5.08
2022-10-29T02:05:58.719Z,5.17
2022-10-29T02:08:40.172Z,5.00
2022-10-29T02:11:22.131Z,4.89
2022-10-29T02:14:00.643Z,4.95
2022-10-29T02:16:30.439Z,4.85
2022-10-29T02:18:58.382Z,4.78
2022-10-29T02:21:25.804Z,4.75
2022-10-29T02:23:53.497Z,4.68
2022-10-29T02:26:22.005Z,4.67
2022-10-29T02:28:49.373Z,4.63
2022-10-29T02:31:16.736Z,4.59
2022-10-29T02:33:44.156Z,4.56
2022-10-29T02:36:11.492Z,4.51
2022-10-29T02:38:38.855Z,4.50
2022-10-29T02:41:06.186Z,4.48
2022-10-29T02:43:33.551Z,4.46
2022-10-29T02:46:36.280Z,4.70
2022-10-29T02:49:03.577Z,4.82
2022-10-29T02:51:30.935Z,4.52
2022-10-29T02:53:58.254Z,4.45
2022-10-29T02:56:25.732Z,4.47
2022-10-29T02:58:53.140Z,4.46
2022-10-29T03:01:20.661Z,4.41
2022-10-29T03:03:48.088Z,4.40
2022-10-29T03:06:17.311Z,4.45
2022-10-29T03:08:45.390Z,4.45
2022-10-29T03:11:13.345Z,4.52
2022-10-29T03:13:40.884Z,4.55
2022-10-29T03:16:08.830Z,4.57
2022-10-29T03:18:36.206Z,4.61
2022-10-29T03:21:03.697Z,4.64
2022-10-29T03:23:31.263Z,4.60
2022-10-29T03:25:58.702Z,4.63
2022-10-29T03:28:28.298Z,4.67
2022-10-29T03:30:55.684Z,4.67
2022-10-29T03:33:24.008Z,4.69
2022-10-29T03:35:56.944Z,4.77
2022-10-29T03:38:24.941Z,4.76
2022-10-29T03:40:52.574Z,4.76
2022-10-29T03:43:20.335Z,4.76
2022-10-29T03:45:55.289Z,4.89
2022-10-29T03:48:24.592Z,4.83
2022-10-29T03:51:00.384Z,4.89
2022-10-29T03:53:29.071Z,4.89
2022-10-29T03:55:57.359Z,4.91
2022-10-29T03:58:25.886Z,4.96
2022-10-29T04:00:57.676Z,5.01
2022-10-29T04:03:26.079Z,4.96
2022-10-29T04:05:53.767Z,4.96
2022-10-29T04:08:21.560Z,5.02
2022-10-29T04:10:50.280Z,5.03
2022-10-29T04:13:18.422Z,5.07
2022-10-29T04:15:46.677Z,5.04
2022-10-29T04:18:14.093Z,5.02
2022-10-29T04:21:03.086Z,5.09
2022-10-29T04:29:05.078Z,5.14
2022-10-29T04:31:32.505Z,5.12
2022-10-29T04:33:59.879Z,5.10
2022-10-29T04:36:27.191Z,5.15
2022-10-29T04:38:54.678Z,5.14
2022-10-29T04:41:21.976Z,5.15
2022-10-29T04:43:49.385Z,5.14
2022-10-29T04:46:16.698Z,5.20
2022-10-29T04:48:44.049Z,5.21
2022-10-29T04:51:25.834Z,5.40
2022-10-29T04:53:53.611Z,5.28
2022-10-29T04:56:21.049Z,5.30
2022-10-29T04:58:52.625Z,5.40
2022-10-29T05:01:20.227Z,5.36
2022-10-29T05:03:47.905Z,5.45
2022-10-29T05:06:15.261Z,5.46
2022-10-29T05:08:42.644Z,5.53
2022-10-29T05:11:10.159Z,5.59
2022-10-29T05:13:37.487Z,5.60
2022-10-29T05:16:05.171Z,5.63
2022-10-29T05:18:32.852Z,5.65
2022-10-29T05:21:00.226Z,5.76
2022-10-29T05:23:27.519Z,5.73
2022-10-29T05:25:56.328Z,5.84
2022-10-29T05:28:24.783Z,5.91
2022-10-29T05:30:53.849Z,6.03
2022-10-29T05:33:23.662Z,6.13
2022-10-29T05:35:52.059Z,6.17
2022-10-29T05:38:20.214Z,6.26
2022-10-29T05:40:47.707Z,6.27
2022-10-29T05:43:17.072Z,6.36
2022-10-29T05:45:45.076Z,6.36
2022-10-29T05:50:45.346Z,6.47
2022-10-29T05:53:14.506Z,6.65
2022-10-29T05:55:42.810Z,6.79
2022-10-29T05:58:12.220Z,7.02
2022-10-29T06:00:42.422Z,7.22
2022-10-29T06:03:18.263Z,7.42
2022-10-29T06:05:48.053Z,7.59
2022-10-29T06:08:15.690Z,7.74
2022-10-29T06:10:43.198Z,7.84
2022-10-29T06:13:15.915Z,7.99
2022-10-29T06:15:43.365Z,8.07
2022-10-29T06:18:10.766Z,8.16
2022-10-29T06:20:39.256Z,8.28
2022-10-29T06:23:07.230Z,8.36
2022-10-29T06:25:34.591Z,8.43
2022-10-29T06:28:12.302Z,8.51
2022-10-29T06:30:39.724Z,8.51
2022-10-29T06:33:07.486Z,8.56
2022-10-29T06:38:10.860Z,8.62
2022-10-29T06:40:40.805Z,8.64
2022-10-29T06:43:11.602Z,8.71
2022-10-29T06:45:39.253Z,8.70
2022-10-29T06:48:07.061Z,8.73
2022-10-29T06:50:34.500Z,8.75
2022-10-29T06:53:06.966Z,8.83
2022-10-29T06:55:35.036Z,8.78
2022-10-29T06:58:05.047Z,8.82
2022-10-29T07:00:33.713Z,8.82
2022-10-29T07:03:01.488Z,8.74
2022-10-29T07:05:29.017Z,8.79
2022-10-29T07:07:58.367Z,8.76
2022-10-29T07:10:29.205Z,8.80
2022-10-29T07:12:56.985Z,8.82
2022-10-29T07:15:27.598Z,8.82
2022-10-29T07:18:06.561Z,8.86
2022-10-29T07:20:37.319Z,8.77
2022-10-29T07:23:04.810Z,8.69
2022-10-29T07:25:33.216Z,8.65
2022-10-29T07:28:06.074Z,8.70
2022-10-29T07:30:34.102Z,8.50
2022-10-29T07:33:01.643Z,8.33
2022-10-29T07:35:29.307Z,8.35
2022-10-29T07:38:09.133Z,8.36
2022-10-29T07:40:40.472Z,8.17
2022-10-29T07:43:09.283Z,8.09
2022-10-29T07:45:36.697Z,8.00
2022-10-29T07:48:07.919Z,8.01
2022-10-29T07:50:36.083Z,7.98
2022-10-29T07:53:04.507Z,8.03
2022-10-29T07:55:31.961Z,8.05
2022-10-29T07:58:02.559Z,8.00
2022-10-29T08:00:31.540Z,7.91
2022-10-29T08:02:58.984Z,7.82
2022-10-29T08:05:27.976Z,7.95
2022-10-29T08:07:56.471Z,7.91
2022-10-29T08:10:25.528Z,7.94
2022-10-29T08:12:58.700Z,7.97
2022-10-29T08:15:29.877Z,8.04
2022-10-29T08:17:58.090Z,8.08
2022-10-29T08:20:26.938Z,8.11
2022-10-29T08:22:54.786Z,8.02
2022-10-29T08:25:22.553Z,7.97
2022-10-29T08:28:04.064Z,8.05
2022-10-29T08:30:32.273Z,7.79
2022-10-29T08:33:01.494Z,7.82
2022-10-29T08:35:29.789Z,7.89
2022-10-29T08:37:57.318Z,8.01
2022-10-29T08:40:32.088Z,8.01
2022-10-29T08:43:27.325Z,7.99
2022-10-29T08:45:56.415Z,7.92
2022-10-29T08:48:42.108Z,7.67
2022-10-29T08:51:24.576Z,7.85
2022-10-29T08:56:58.042Z,7.74
2022-10-29T08:59:30.465Z,7.60
2022-10-29T09:01:58.046Z,7.47
2022-10-29T09:04:34.566Z,7.43
2022-10-29T09:07:37.543Z,7.36
2022-10-29T09:10:16.048Z,7.25
2022-10-29T09:13:10.960Z,7.32
2022-10-29T09:16:06.412Z,7.41
2022-10-29T09:19:14.845Z,7.30
2022-10-29T09:21:48.162Z,7.14
2022-10-29T09:24:40.336Z,7.19
2022-10-29T09:27:19.814Z,7.29
2022-10-29T09:29:47.197Z,7.19
2022-10-29T09:32:29.921Z,7.25
2022-10-29T09:35:06.049Z,7.20
2022-10-29T09:38:00.021Z,7.23
2022-10-29T09:40:37.836Z,7.32
2022-10-29T09:43:37.485Z,7.30
2022-10-29T09:46:35.394Z,7.19
2022-10-29T09:49:37.592Z,7.12
2022-10-29T09:52:11.489Z,7.00
2022-10-29T09:54:38.695Z,7.15
2022-10-29T09:57:10.324Z,6.82
2022-10-29T09:59:44.130Z,6.80
2022-10-29T10:02:33.102Z,6.94
2022-10-29T10:05:25.462Z,6.91
2022-10-29T10:08:13.257Z,6.93
2022-10-29T10:10:59.057Z,6.94
2022-10-29T10:13:32.383Z,6.94
2022-10-29T10:16:02.195Z,6.93
2022-10-29T10:18:32.658Z,6.89
2022-10-29T10:21:30.160Z,6.84
2022-10-29T10:23:58.960Z,6.56
2022-10-29T10:26:41.737Z,6.60
2022-10-29T10:29:13.938Z,6.51
2022-10-29T10:31:44.343Z,6.46
2022-10-29T10:34:25.954Z,6.54
2022-10-29T10:37:20.263Z,6.62
2022-10-29T10:39:53.730Z,6.40
2022-10-29T10:42:23.365Z,6.40
2022-10-29T10:44:59.261Z,6.47
2022-10-29T10:47:30.104Z,6.23
2022-10-29T10:50:19.320Z,6.36
2022-10-29T10:52:47.690Z,6.11
2022-10-29T10:55:40.692Z,6.31
2022-10-29T10:58:17.871Z,6.46
2022-10-29T11:00:52.153Z,6.20
2022-10-29T11:03:25.858Z,6.10
2022-10-29T11:06:07.057Z,6.03
2022-10-29T11:08:41.412Z,5.98
2022-10-29T11:11:27.748Z,5.96
2022-10-29T11:14:01.313Z,5.83
2022-10-29T11:16:37.835Z,5.82
2022-10-29T11:19:43.646Z,5.95
2022-10-29T11:22:13.696Z,5.96
2022-10-29T11:24:59.442Z,5.96
2022-10-29T11:27:52.366Z,5.82
2022-10-29T11:30:20.582Z,5.66
2022-10-29T11:35:56.071Z,5.80
2022-10-29T11:38:34.434Z,5.64
2022-10-29T11:41:05.183Z,5.44
2022-10-29T11:43:33.930Z,5.37
2022-10-29T11:46:14.881Z,5.35
2022-10-29T11:48:51.067Z,5.20
2022-10-29T11:51:46.250Z,5.26
2022-10-29T11:54:38.514Z,5.29
2022-10-29T11:57:10.197Z,5.15
2022-10-29T11:59:46.753Z,5.13
2022-10-29T12:02:32.687Z,5.06
2022-10-29T12:05:37.525Z,4.97
2022-10-29T12:08:32.830Z,4.92
2022-10-29T12:11:23.378Z,4.87
2022-10-29T12:14:06.265Z,4.72
2022-10-29T12:16:45.754Z,4.59
2022-10-29T12:23:25.504Z,4.50
2022-10-29T12:26:31.506Z,4.46
2022-10-29T12:29:11.860Z,4.26
2022-10-29T12:31:56.258Z,4.26
2022-10-29T12:34:37.928Z,4.13
2022-10-29T12:37:13.938Z,4.10
2022-10-29T12:39:48.587Z,4.02
2022-10-29T12:42:28.468Z,4.05
2022-10-29T12:44:55.779Z,3.88
2022-10-29T12:47:53.702Z,4.03
2022-10-29T12:50:39.922Z,4.09
2022-10-29T12:53:38.294Z,4.11
2022-10-29T12:56:08.677Z,4.05
2022-10-29T12:58:46.985Z,4.07
2022-10-29T13:01:38.321Z,4.06
2022-10-29T13:04:31.250Z,3.99
2022-10-29T13:07:24.848Z,3.85
2022-10-29T13:10:24.091Z,3.99
2022-10-29T13:13:08.137Z,3.91
2022-10-29T13:15:57.122Z,3.83
2022-10-29T13:18:41.258Z,3.71
2022-10-29T13:21:09.498Z,3.69
2022-10-29T13:23:38.012Z,3.67
2022-10-29T13:26:07.506Z,3.64
2022-10-29T13:28:37.970Z,3.62
2022-10-29T13:31:05.352Z,3.51
2022-10-29T13:33:33.320Z,3.52
2022-10-29T13:36:06.283Z,3.54
2022-10-29T13:38:51.771Z,3.55
2022-10-29T13:41:43.202Z,3.55
2022-10-29T13:44:17.943Z,3.48
2022-10-29T13:47:01.924Z,3.54
2022-10-29T13:49:32.326Z,3.45
2022-10-29T13:52:04.260Z,3.39
2022-10-29T13:54:40.553Z,3.35
2022-10-29T13:57:14.882Z,3.29
2022-10-29T13:59:47.072Z,3.31
2022-10-29T14:02:42.813Z,3.44
2022-10-29T14:05:17.503Z,3.26
2022-10-29T14:07:51.584Z,3.34
2022-10-29T14:10:26.003Z,3.34
2022-10-29T14:13:01.716Z,3.28
2022-10-29T14:15:29.189Z,3.25
2022-10-29T14:17:56.707Z,3.17
2022-10-29T14:20:29.744Z,3.25
2022-10-29T14:22:57.413Z,3.19
2022-10-29T14:25:24.826Z,3.19
2022-10-29T14:28:18.629Z,3.36
2022-10-29T14:31:03.424Z,3.35
2022-10-29T14:33:36.733Z,3.19
2022-10-29T14:36:17.065Z,3.15
2022-10-29T14:38:51.312Z,3.22
2022-10-29T14:41:20.469Z,3.25
2022-10-29T14:43:57.026Z,3.25
2022-10-29T14:46:30.306Z,3.18
2022-10-29T14:49:05.674Z,3.21
2022-10-29T14:51:47.626Z,3.27
2022-10-29T14:54:25.109Z,3.20
2022-10-29T14:56:57.621Z,3.20
2022-10-29T14:59:29.432Z,3.15
2022-10-29T15:02:17.421Z,3.14
2022-10-29T15:04:56.204Z,3.02
2022-10-29T15:07:23.850Z,3.06
2022-10-29T15:10:11.326Z,3.16
2022-10-29T15:12:40.658Z,2.98
2022-10-29T15:15:30.895Z,3.11
2022-10-29T15:18:03.787Z,3.00
2022-10-29T15:20:40.490Z,3.07
2022-10-29T15:23:34.480Z,3.06
2022-10-29T15:26:09.548Z,2.99
2022-10-29T15:28:43.365Z,2.96
2022-10-29T15:31:45.910Z,3.05
2022-10-29T15:34:24.340Z,3.13
2022-10-29T15:36:54.316Z,3.00
2022-10-29T15:39:29.659Z,3.00
2022-10-29T15:41:59.570Z,2.95
2022-10-29T15:44:37.890Z,3.00
2022-10-29T15:47:38.941Z,3.06
2022-10-29T15:50:11.032Z,2.93
2022-10-29T15:52:42.024Z,2.85
2022-10-29T15:55:26.082Z,2.94
2022-10-29T15:57:56.883Z,2.89
2022-10-29T16:00:24.768Z,2.90
2022-10-29T16:02:52.257Z,2.89
2022-10-29T16:05:19.860Z,2.89
2022-10-29T16:07:48.631Z,2.93
2022-10-29T16:10:19.187Z,2.99
2022-10-29T16:12:48.497Z,2.93
2022-10-29T16:15:20.264Z,2.94
2022-10-29T16:17:48.252Z,2.91
2022-10-29T16:20:18.990Z,3.04
2022-10-29T16:22:48.475Z,3.03
2022-10-29T16:25:22.858Z,3.07
2022-10-29T16:27:50.719Z,3.03
2022-10-29T16:30:19.701Z,2.89
2022-10-29T16:32:50.146Z,3.05
2022-10-29T16:35:21.501Z,3.08
2022-10-29T16:37:50.100Z,3.06
2022-10-29T16:40:18.737Z,3.07
2022-10-29T16:42:50.021Z,3.03
2022-10-29T16:45:21.010Z,3.07
2022-10-29T16:47:48.424Z,3.03
2022-10-29T16:50:20.705Z,3.06
2022-10-29T16:52:48.698Z,3.02
2022-10-29T16:55:16.108Z,3.05
2022-10-29T16:57:43.570Z,3.05
2022-10-29T17:00:11.394Z,3.10
2022-10-29T17:02:40.833Z,3.12
2022-10-29T17:05:08.637Z,3.13
2022-10-29T17:07:36.128Z,3.14
2022-10-29T17:10:04.819Z,3.13
2022-10-29T17:12:34.370Z,3.17
2022-10-29T17:15:02.119Z,3.10
2022-10-29T17:17:32.180Z,3.12
2022-10-29T17:19:59.640Z,3.13
2022-10-29T17:22:27.105Z,3.12
2022-10-29T17:24:54.481Z,3.11
2022-10-29T17:27:22.064Z,3.11
2022-10-29T17:29:49.430Z,3.13
2022-10-29T17:32:17.112Z,3.11
2022-10-29T17:34:44.653Z,3.08
2022-10-29T17:37:12.290Z,3.14
2022-10-29T17:39:39.725Z,3.18
2022-10-29T17:42:07.101Z,3.21
2022-10-29T17:44:36.441Z,3.17
2022-10-29T17:47:03.951Z,3.19
2022-10-29T17:49:31.409Z,3.18
2022-10-29T17:51:58.900Z,3.17
2022-10-29T17:54:28.395Z,3.15
2022-10-29T17:56:55.929Z,3.22
2022-10-29T17:59:23.429Z,3.25
2022-10-29T18:01:51.062Z,3.25
2022-10-29T18:04:18.518Z,3.26
2022-10-29T18:06:46.424Z,3.31
2022-10-29T18:09:17.097Z,3.19
2022-10-29T18:11:48.632Z,3.49
2022-10-29T18:14:16.185Z,3.30
2022-10-29T18:16:43.584Z,3.07
2022-10-29T18:19:10.984Z,3.19
2022-10-29T18:21:38.563Z,3.22
2022-10-29T18:24:06.500Z,3.20
2022-10-29T18:26:36.131Z,3.20
2022-10-29T18:29:09.585Z,3.24
2022-10-29T18:31:38.166Z,3.20
2022-10-29T18:34:07.922Z,3.18
2022-10-29T18:36:37.679Z,3.08
2022-10-29T18:39:06.690Z,3.13
2022-10-29T18:41:34.759Z,3.04
2022-10-29T18:44:03.162Z,3.15
2022-10-29T18:46:32.033Z,3.20
2022-10-29T18:49:01.034Z,3.18
2022-10-29T18:51:31.092Z,3.16
2022-10-29T18:53:59.679Z,3.07
2022-10-29T18:56:28.339Z,3.05
2022-10-29T18:58:56.844Z,3.14
2022-10-29T19:01:27.638Z,3.12
2022-10-29T19:03:57.409Z,3.17
2022-10-29T19:06:27.674Z,3.17
2022-10-29T19:08:57.028Z,3.10
2022-10-29T19:11:26.468Z,3.10
2022-10-29T19:13:56.302Z,3.16
2022-10-29T19:16:24.073Z,3.13
2022-10-29T19:21:39.843Z,3.14
2022-10-29T19:24:08.321Z,3.16
2022-10-29T19:26:36.256Z,3.03
2022-10-29T19:29:05.794Z,3.10
2022-10-29T19:31:34.868Z,3.03
2022-10-29T19:34:06.328Z,3.07
2022-10-29T19:36:35.996Z,3.07
2022-10-29T19:39:04.692Z,3.05
2022-10-29T19:41:33.069Z,3.06
2022-10-29T19:44:04.552Z,3.03
2022-10-29T19:46:32.103Z,3.03
2022-10-29T19:49:00.896Z,3.01
2022-10-29T19:51:28.611Z,2.99
2022-10-29T19:53:58.173Z,2.99
2022-10-29T19:56:25.615Z,2.96
2022-10-29T19:58:53.084Z,2.97
2022-10-29T20:01:20.560Z,2.95
2022-10-29T20:03:48.509Z,3.01
2022-10-29T20:06:16.671Z,3.06
2022-10-29T20:08:44.505Z,3.04
2022-10-29T20:11:11.888Z,3.02
2022-10-29T20:13:40.306Z,3.00
2022-10-29T20:16:15.772Z,3.09
2022-10-29T20:18:43.214Z,2.98
2022-10-29T20:21:10.594Z,2.99
2022-10-29T20:23:38.415Z,3.03
2022-10-29T20:26:07.028Z,3.05
2022-10-29T20:28:34.971Z,3.07
2022-10-29T20:31:17.839Z,3.25
2022-10-29T20:33:56.589Z,3.24
2022-10-29T20:36:24.935Z,3.05
2022-10-29T20:38:53.737Z,3.11
2022-10-29T20:41:22.124Z,3.09
2022-10-29T20:44:01.598Z,3.15
2022-10-29T20:46:29.429Z,3.05
2022-10-29T20:48:56.881Z,3.11
2022-10-29T20:51:26.335Z,3.07
2022-10-29T20:53:54.505Z,3.02
2022-10-29T20:56:24.507Z,3.03
2022-10-29T20:58:52.304Z,3.00
2022-10-29T21:01:22.127Z,3.04
2022-10-29T21:03:50.761Z,3.03
2022-10-29T21:06:18.663Z,3.01
2022-10-29T21:08:47.776Z,3.04
2022-10-29T21:11:20.051Z,3.03
2022-10-29T21:13:47.743Z,3.03
2022-10-29T21:16:23.681Z,3.08
2022-10-29T21:18:53.486Z,3.04
2022-10-29T21:21:21.167Z,2.96
2022-10-29T21:23:48.699Z,2.94
2022-10-29T21:26:22.132Z,2.94
2022-10-29T21:28:50.840Z,2.88
2022-10-29T21:31:20.586Z,2.83
2022-10-29T21:33:52.534Z,2.91
2022-10-29T21:36:20.415Z,2.90
2022-10-29T21:38:48.964Z,2.87
2022-10-29T21:41:16.937Z,2.86
2022-10-29T21:43:44.417Z,2.90
2022-10-29T21:46:11.817Z,2.88
2022-10-29T21:48:39.175Z,2.92
2022-10-29T21:51:10.468Z,2.93
2022-10-29T21:53:38.158Z,2.89
2022-10-29T21:56:08.604Z,2.95
2022-10-29T21:58:35.928Z,2.93
2022-10-29T22:01:12.055Z,2.94
2022-10-29T22:03:41.594Z,2.87
2022-10-29T22:06:13.048Z,2.94
2022-10-29T22:08:41.171Z,2.90
2022-10-29T22:11:08.756Z,2.88
2022-10-29T22:13:36.351Z,2.88
2022-10-29T22:16:05.279Z,2.87
2022-10-29T22:18:33.482Z,2.89
2022-10-29T22:21:21.413Z,3.03
2022-10-29T22:23:54.141Z,3.06
2022-10-29T22:26:24.990Z,3.01
2022-10-29T22:28:52.745Z,3.11
2022-10-29T22:31:21.668Z,3.23
2022-10-29T22:33:49.318Z,3.29
2022-10-29T22:36:28.622Z,3.29
2022-10-29T22:38:58.344Z,3.36
2022-10-29T22:41:26.842Z,3.40
2022-10-29T22:43:56.248Z,3.48
2022-10-29T22:46:23.854Z,3.37
2022-10-29T22:48:51.845Z,3.35
2022-10-29T22:51:22.648Z,3.34
2022-10-29T22:53:51.534Z,3.19
2022-10-29T22:56:31.002Z,3.15
2022-10-29T22:58:58.986Z,3.06
2022-10-29T23:01:29.024Z,3.04
2022-10-29T23:03:58.193Z,2.99
2022-10-29T23:06:26.219Z,2.97
2022-10-29T23:08:56.028Z,3.13
2022-10-29T23:11:29.134Z,3.25
2022-10-29T23:14:01.157Z,3.23
2022-10-29T23:16:30.479Z,3.23
2022-10-29T23:19:00.074Z,3.25
2022-10-29T23:21:28.276Z,3.32
2022-10-29T23:23:56.291Z,3.33
2022-10-29T23:26:25.025Z,3.31
2022-10-29T23:28:52.561Z,3.34
2022-10-29T23:31:22.566Z,3.41
2022-10-29T23:33:52.224Z,3.45
2022-10-29T23:36:22.127Z,3.55
2022-10-29T23:38:58.650Z,3.65
2022-10-29T23:41:27.834Z,3.65
2022-10-29T23:43:55.391Z,3.63
2022-10-29T23:46:23.127Z,3.72
2022-10-29T23:48:50.772Z,3.68
2022-10-29T23:51:18.916Z,3.59
2022-10-29T23:53:46.379Z,3.44
2022-10-29T23:56:13.655Z,3.29
2022-10-29T23:58:41.077Z,3.23
